KMRC/MRC METAR and TAF weather

Enter ICAO airport designator
Station Type Date Time Source
KMRC METAR 2019/12/08 03:35 UTC NOAA

KMRC 080335Z AUTO 00000KT 4SM BR CLR 03/03 A3023 RMK A01


Station Type Date Time Source
KMRC Decoded METAR 2019/12/08 03:35 UTC NOAA

Columbia / Maury County, TN, United States (KMRC) 35-33N 087-11W
Dec 07, 2019 - 10:35 PM EST / 2019.12.08 0335 UTC
Wind: Calm:0
Visibility: 4 mile(s):0
Sky conditions: clear
Weather: mist
Temperature: 37 F (3 C)
Dew Point: 37 F (3 C)
Relative Humidity: 100%
Pressure (altimeter): 30.23 in. Hg (1023 hPa)
ob: KMRC 080335Z AUTO 00000KT 4SM BR CLR 03/03 A3023 RMK A01
cycle: 3

Station Type Date Time Source
KMRC TAF 2009/08/31 19:45 UTC NOAA

METAR KMRC 311945Z AUTO 06008KT 10SM CLR 26/12 A3010
RMK AO1 T02550116 $

Example: see airport list